createdAt,value
2018-09-26T00:00:07.047Z,59.58
2018-09-26T00:01:07.045Z,59.48
2018-09-26T00:02:07.031Z,59.48
2018-09-26T00:03:07.021Z,59.30
2018-09-26T00:04:07.015Z,59.58
2018-09-26T00:05:07.002Z,59.58
2018-09-26T00:06:06.998Z,59.58
2018-09-26T00:07:06.984Z,59.48
2018-09-26T00:08:06.977Z,59.68
2018-09-26T00:09:06.969Z,59.78
2018-09-26T00:10:06.957Z,59.78
2018-09-26T00:11:06.955Z,59.87
2018-09-26T00:12:06.950Z,59.87
2018-09-26T00:13:06.938Z,59.58
2018-09-26T00:14:06.929Z,59.58
2018-09-26T00:15:06.920Z,59.48
2018-09-26T00:16:06.906Z,59.48
2018-09-26T00:17:06.901Z,59.39
2018-09-26T00:18:06.892Z,59.48
2018-09-26T00:19:06.884Z,59.68
2018-09-26T00:20:06.873Z,59.48
2018-09-26T00:21:06.866Z,59.58
2018-09-26T00:22:06.859Z,59.48
2018-09-26T00:23:06.850Z,59.58
2018-09-26T00:24:06.841Z,59.39
2018-09-26T00:25:06.827Z,59.39
2018-09-26T00:26:06.825Z,59.48
2018-09-26T00:27:06.819Z,59.48
2018-09-26T00:28:06.811Z,59.30
2018-09-26T00:29:06.809Z,59.30
2018-09-26T00:30:06.794Z,59.30
2018-09-26T00:31:06.784Z,59.30
2018-09-26T00:32:06.777Z,59.30
2018-09-26T00:33:06.766Z,59.30
2018-09-26T00:34:06.756Z,59.10
2018-09-26T00:35:06.754Z,59.10
2018-09-26T00:36:06.906Z,59.30
2018-09-26T00:37:06.733Z,58.91
2018-09-26T00:38:06.724Z,59.30
2018-09-26T00:39:06.734Z,59.20
2018-09-26T00:40:06.706Z,59.20
2018-09-26T00:41:06.706Z,59.00
2018-09-26T00:42:06.688Z,58.81
2018-09-26T00:43:06.683Z,59.00
2018-09-26T00:44:06.673Z,59.10
2018-09-26T00:45:06.665Z,59.10
2018-09-26T00:46:06.657Z,58.91
2018-09-26T00:47:06.647Z,59.00
2018-09-26T00:48:06.645Z,59.00
2018-09-26T00:49:06.632Z,59.10
2018-09-26T00:50:06.616Z,59.00
2018-09-26T00:51:06.612Z,59.00
2018-09-26T00:52:06.609Z,59.10
2018-09-26T00:53:06.610Z,58.91
2018-09-26T00:54:06.588Z,58.91
2018-09-26T00:55:06.588Z,59.00
2018-09-26T00:56:06.572Z,59.20
2018-09-26T00:57:06.568Z,58.81
2018-09-26T00:58:06.561Z,58.62
2018-09-26T00:59:06.548Z,58.62
2018-09-26T01:00:06.541Z,58.42
2018-09-26T01:01:06.527Z,58.81
2018-09-26T01:02:06.518Z,58.42
2018-09-26T01:03:06.512Z,58.42
2018-09-26T01:04:06.513Z,58.42
2018-09-26T01:05:06.496Z,58.52
2018-09-26T01:06:06.486Z,58.42
2018-09-26T01:07:06.477Z,58.42
2018-09-26T01:08:06.469Z,58.23
2018-09-26T01:09:06.460Z,58.23
2018-09-26T01:10:06.454Z,58.33
2018-09-26T01:11:06.445Z,58.33
2018-09-26T01:12:06.441Z,58.04
2018-09-26T01:13:06.428Z,58.23
2018-09-26T01:14:06.418Z,58.23
2018-09-26T01:15:06.417Z,58.42
2018-09-26T01:16:06.403Z,58.33
2018-09-26T01:17:06.394Z,58.42
2018-09-26T01:18:06.385Z,58.52
2018-09-26T01:19:06.376Z,58.72
2018-09-26T01:20:06.371Z,58.33
2018-09-26T01:21:06.358Z,58.33
2018-09-26T01:22:06.354Z,58.62
2018-09-26T01:23:06.344Z,58.42
2018-09-26T01:24:06.328Z,58.42
2018-09-26T01:25:06.323Z,58.42
2018-09-26T01:26:06.315Z,58.42
2018-09-26T01:27:06.307Z,58.33
2018-09-26T01:28:06.301Z,58.52
2018-09-26T01:29:06.295Z,58.72
2018-09-26T01:30:06.283Z,58.62
2018-09-26T01:31:06.277Z,58.62
2018-09-26T01:32:06.264Z,58.14
2018-09-26T01:33:06.259Z,58.14
2018-09-26T01:34:06.249Z,58.04
2018-09-26T01:35:06.240Z,58.04
2018-09-26T01:36:06.229Z,57.85
2018-09-26T01:37:06.221Z,58.04
2018-09-26T01:38:06.219Z,58.04
2018-09-26T01:39:06.208Z,58.01
2018-09-26T01:40:06.195Z,58.14
2018-09-26T01:41:06.190Z,57.94
2018-09-26T01:42:06.185Z,57.94
2018-09-26T01:43:06.174Z,58.14
2018-09-26T01:44:06.170Z,58.04
2018-09-26T01:45:06.161Z,58.14
2018-09-26T01:46:06.148Z,58.11
2018-09-26T01:47:06.134Z,58.14
2018-09-26T01:48:06.129Z,57.94
2018-09-26T01:49:06.124Z,58.04
2018-09-26T01:50:06.113Z,58.33
2018-09-26T01:51:06.103Z,58.04
2018-09-26T01:52:06.097Z,58.04
2018-09-26T01:53:06.083Z,58.04
2018-09-26T01:54:06.079Z,58.14
2018-09-26T01:55:06.069Z,58.14
2018-09-26T01:56:06.076Z,58.04
2018-09-26T01:57:06.052Z,58.11
2018-09-26T01:58:06.048Z,58.33
2018-09-26T01:59:06.036Z,58.23
2018-09-26T02:00:06.025Z,58.23
2018-09-26T02:01:06.027Z,58.20
2018-09-26T02:02:06.012Z,57.94
2018-09-26T02:03:06.003Z,58.01
2018-09-26T02:04:05.997Z,58.23
2018-09-26T02:05:05.983Z,58.23
2018-09-26T02:06:05.978Z,58.33
2018-09-26T02:07:05.971Z,58.23
2018-09-26T02:08:05.965Z,57.65
2018-09-26T02:09:05.953Z,57.72
2018-09-26T02:10:05.938Z,57.75
2018-09-26T02:11:05.933Z,57.75
2018-09-26T02:12:05.928Z,57.82
2018-09-26T02:13:05.917Z,57.72
2018-09-26T02:14:05.912Z,57.75
2018-09-26T02:15:05.907Z,57.94
2018-09-26T02:16:05.890Z,57.85
2018-09-26T02:17:05.883Z,57.72
2018-09-26T02:18:05.877Z,57.94
2018-09-26T02:19:05.868Z,57.65
2018-09-26T02:20:05.863Z,57.94
2018-09-26T02:21:05.851Z,57.75
2018-09-26T02:22:05.838Z,57.56
2018-09-26T02:23:05.831Z,57.56
2018-09-26T02:24:05.827Z,57.46
2018-09-26T02:25:05.817Z,57.53
2018-09-26T02:26:05.806Z,57.65
2018-09-26T02:27:05.798Z,57.56
2018-09-26T02:28:05.788Z,57.56
2018-09-26T02:29:05.784Z,57.72
2018-09-26T02:30:05.773Z,57.53
2018-09-26T02:31:05.764Z,57.82
2018-09-26T02:32:05.751Z,57.43
2018-09-26T02:33:05.745Z,58.01
2018-09-26T02:34:05.735Z,57.62
2018-09-26T02:35:05.731Z,57.56
2018-09-26T02:36:05.721Z,57.43
2018-09-26T02:37:05.713Z,57.65
2018-09-26T02:38:05.704Z,57.62
2018-09-26T02:39:05.694Z,57.62
2018-09-26T02:40:05.685Z,57.65
2018-09-26T02:41:05.688Z,57.62
2018-09-26T02:42:05.672Z,57.72
2018-09-26T02:43:05.664Z,57.72
2018-09-26T02:44:05.655Z,57.75
2018-09-26T02:45:05.641Z,58.01
2018-09-26T02:46:05.633Z,57.82
2018-09-26T02:47:05.624Z,57.85
2018-09-26T02:48:05.618Z,57.65
2018-09-26T02:49:05.610Z,57.53
2018-09-26T02:50:05.599Z,57.65
2018-09-26T02:51:05.595Z,57.92
2018-09-26T02:52:05.586Z,57.82
2018-09-26T02:53:05.575Z,57.82
2018-09-26T02:54:05.566Z,57.65
2018-09-26T02:55:05.559Z,57.62
2018-09-26T02:56:05.547Z,57.72
2018-09-26T02:57:05.544Z,57.72
2018-09-26T02:58:05.539Z,57.43
2018-09-26T02:59:05.524Z,57.53
2018-09-26T03:00:05.517Z,57.62
2018-09-26T03:01:05.508Z,57.53
2018-09-26T03:02:05.497Z,57.24
2018-09-26T03:03:05.492Z,57.14
2018-09-26T03:04:05.490Z,57.34
2018-09-26T03:05:05.478Z,57.43
2018-09-26T03:06:05.464Z,57.53
2018-09-26T03:07:05.457Z,57.53
2018-09-26T03:08:05.444Z,57.53
2018-09-26T03:09:05.442Z,57.62
2018-09-26T03:10:05.428Z,57.62
2018-09-26T03:11:05.426Z,57.34
2018-09-26T03:12:05.411Z,57.53
2018-09-26T03:13:05.407Z,57.53
2018-09-26T03:14:05.396Z,57.53
2018-09-26T03:15:05.389Z,57.53
2018-09-26T03:16:05.378Z,57.53
2018-09-26T03:17:05.371Z,57.53
2018-09-26T03:18:05.361Z,57.53
2018-09-26T03:19:05.351Z,57.62
2018-09-26T03:20:05.347Z,57.24
2018-09-26T03:21:05.344Z,57.24
2018-09-26T03:22:05.330Z,57.43
2018-09-26T03:23:05.321Z,57.24
2018-09-26T03:24:05.311Z,57.34
2018-09-26T03:25:05.300Z,57.34
2018-09-26T03:26:05.293Z,57.43
2018-09-26T03:27:05.285Z,57.53
2018-09-26T03:28:05.277Z,57.34
2018-09-26T03:29:05.267Z,57.34
2018-09-26T03:30:05.262Z,57.43
2018-09-26T03:31:05.246Z,57.24
2018-09-26T03:32:05.244Z,57.53
2018-09-26T03:33:05.226Z,57.43
2018-09-26T03:34:05.229Z,57.53
2018-09-26T03:35:05.214Z,57.53
2018-09-26T03:36:05.210Z,57.53
2018-09-26T03:37:05.199Z,57.53
2018-09-26T03:38:05.197Z,57.62
2018-09-26T03:39:05.185Z,57.53
2018-09-26T03:40:05.173Z,56.95
2018-09-26T03:41:05.161Z,57.82
2018-09-26T03:42:05.155Z,56.76
2018-09-26T03:43:05.151Z,57.34
2018-09-26T03:44:05.138Z,56.95
2018-09-26T03:45:05.128Z,57.05
2018-09-26T03:46:05.119Z,56.95
2018-09-26T03:47:05.114Z,56.95
2018-09-26T03:48:05.104Z,57.05
2018-09-26T03:49:05.099Z,56.95
2018-09-26T03:50:05.087Z,56.76
2018-09-26T03:51:05.075Z,56.76
2018-09-26T03:52:05.069Z,56.85
2018-09-26T03:53:05.064Z,56.57
2018-09-26T03:54:05.050Z,56.57
2018-09-26T03:55:05.049Z,56.95
2018-09-26T03:56:05.035Z,56.76
2018-09-26T03:57:05.053Z,56.73
2018-09-26T03:58:05.015Z,56.41
2018-09-26T03:59:05.027Z,56.51
2018-09-26T04:00:05.027Z,56.41
2018-09-26T04:01:04.993Z,56.32
2018-09-26T04:02:05.003Z,56.12
2018-09-26T04:03:04.974Z,56.03
2018-09-26T04:04:04.961Z,56.12
2018-09-26T04:05:04.962Z,55.45
2018-09-26T04:06:04.952Z,55.55
2018-09-26T04:07:04.938Z,55.55
2018-09-26T04:08:04.929Z,55.57
2018-09-26T04:09:04.927Z,55.09
2018-09-26T04:10:04.915Z,55.09
2018-09-26T04:11:04.901Z,55.19
2018-09-26T04:12:04.894Z,55.09
2018-09-26T04:13:04.925Z,54.90
2018-09-26T04:14:04.873Z,55.09
2018-09-26T04:15:04.871Z,54.83
2018-09-26T04:16:04.857Z,55.31
2018-09-26T04:17:04.852Z,54.83
2018-09-26T04:18:04.839Z,54.83
2018-09-26T04:19:04.837Z,54.83
2018-09-26T04:20:04.825Z,54.83
2018-09-26T04:21:04.812Z,55.22
2018-09-26T04:22:04.811Z,54.83
2018-09-26T04:23:04.797Z,54.74
2018-09-26T04:24:04.787Z,54.83
2018-09-26T04:25:04.781Z,54.83
2018-09-26T04:26:04.773Z,55.31
2018-09-26T04:27:04.795Z,55.22
2018-09-26T04:28:04.772Z,54.93
2018-09-26T04:29:04.746Z,55.12
2018-09-26T04:30:04.734Z,55.24
2018-09-26T04:31:04.727Z,55.22
2018-09-26T04:32:04.717Z,55.05
2018-09-26T04:33:04.851Z,55.15
2018-09-26T04:34:04.701Z,55.05
2018-09-26T04:35:04.701Z,55.34
2018-09-26T04:36:04.682Z,55.24
2018-09-26T04:37:04.675Z,55.24
2018-09-26T04:38:04.665Z,55.15
2018-09-26T04:39:04.658Z,55.63
2018-09-26T04:40:04.647Z,55.63
2018-09-26T04:41:04.640Z,55.63
2018-09-26T04:42:04.629Z,55.54
2018-09-26T04:43:04.621Z,55.44
2018-09-26T04:44:04.612Z,55.44
2018-09-26T04:45:04.609Z,55.92
2018-09-26T04:46:04.601Z,55.63
2018-09-26T04:47:04.588Z,55.44
2018-09-26T04:48:04.577Z,55.63
2018-09-26T04:49:04.568Z,55.92
2018-09-26T04:50:04.561Z,56.11
2018-09-26T04:51:04.554Z,56.01
2018-09-26T04:52:04.543Z,56.30
2018-09-26T04:53:04.537Z,56.11
2018-09-26T04:54:04.526Z,55.92
2018-09-26T04:55:04.519Z,56.21
2018-09-26T04:56:04.510Z,56.11
2018-09-26T04:57:04.501Z,56.21
2018-09-26T04:58:04.592Z,56.49
2018-09-26T04:59:04.485Z,56.18
2018-09-26T05:00:04.474Z,56.40
2018-09-26T05:01:04.468Z,56.30
2018-09-26T05:02:04.462Z,56.30
2018-09-26T05:03:04.449Z,56.59
2018-09-26T05:04:04.440Z,56.40
2018-09-26T05:05:04.433Z,57.07
2018-09-26T05:06:04.422Z,56.88
2018-09-26T05:07:04.415Z,56.88
2018-09-26T05:08:04.405Z,56.88
2018-09-26T05:09:04.397Z,56.79
2018-09-26T05:10:04.389Z,56.66
2018-09-26T05:11:04.381Z,56.79
2018-09-26T05:12:04.376Z,56.59
2018-09-26T05:13:04.365Z,56.95
2018-09-26T05:14:04.354Z,56.95
2018-09-26T05:15:04.347Z,57.17
2018-09-26T05:16:04.339Z,56.76
2018-09-26T05:17:04.331Z,56.88
2018-09-26T05:18:04.322Z,56.76
2018-09-26T05:19:04.323Z,56.76
2018-09-26T05:20:04.306Z,56.69
2018-09-26T05:21:04.295Z,56.88
2018-09-26T05:22:04.287Z,56.85
2018-09-26T05:23:04.305Z,57.34
2018-09-26T05:24:04.271Z,56.79
2018-09-26T05:25:04.260Z,57.53
2018-09-26T05:26:04.253Z,57.43
2018-09-26T05:27:04.243Z,57.53
2018-09-26T05:28:04.238Z,57.24
2018-09-26T05:29:04.227Z,57.34
2018-09-26T05:30:04.223Z,57.24
2018-09-26T05:31:04.208Z,57.14
2018-09-26T05:32:04.201Z,57.43
2018-09-26T05:33:04.191Z,57.43
2018-09-26T05:34:04.181Z,57.34
2018-09-26T05:35:04.178Z,57.43
2018-09-26T05:36:04.170Z,57.53
2018-09-26T05:37:04.158Z,57.72
2018-09-26T05:38:04.149Z,57.72
2018-09-26T05:39:04.142Z,57.53
2018-09-26T05:40:04.132Z,57.53
2018-09-26T05:41:04.124Z,57.53
2018-09-26T05:42:04.117Z,57.92
2018-09-26T05:43:04.108Z,57.92
2018-09-26T05:44:04.099Z,57.82
2018-09-26T05:45:04.094Z,57.62
2018-09-26T05:46:04.077Z,57.72
2018-09-26T05:47:04.073Z,57.72
2018-09-26T05:48:04.075Z,57.62
2018-09-26T05:49:04.055Z,57.62
2018-09-26T05:50:04.090Z,57.72
2018-09-26T05:51:04.040Z,57.72
2018-09-26T05:52:04.029Z,57.72
2018-09-26T05:53:04.022Z,57.82
2018-09-26T05:54:04.011Z,57.53
2018-09-26T05:55:03.996Z,57.72
2018-09-26T05:56:03.996Z,57.62
2018-09-26T05:57:03.985Z,57.94
2018-09-26T05:58:03.980Z,57.46
2018-09-26T05:59:03.975Z,57.72
2018-09-26T06:00:03.960Z,57.82
2018-09-26T06:01:03.953Z,57.72
2018-09-26T06:02:03.942Z,58.11
2018-09-26T06:03:03.933Z,57.85
2018-09-26T06:04:03.927Z,57.82
2018-09-26T06:05:03.918Z,58.01
2018-09-26T06:06:03.907Z,57.82
2018-09-26T06:07:03.900Z,57.72
2018-09-26T06:08:03.887Z,57.72
2018-09-26T06:09:03.884Z,57.56
2018-09-26T06:10:03.876Z,57.85
2018-09-26T06:11:03.867Z,57.75
2018-09-26T06:12:03.857Z,57.65
2018-09-26T06:13:03.884Z,57.53
2018-09-26T06:14:03.839Z,57.65
2018-09-26T06:15:03.831Z,57.65
2018-09-26T06:16:03.831Z,57.65
2018-09-26T06:17:03.818Z,58.23
2018-09-26T06:18:03.806Z,58.20
2018-09-26T06:19:03.811Z,58.11
2018-09-26T06:20:03.788Z,58.20
2018-09-26T06:21:03.780Z,58.11
2018-09-26T06:22:03.769Z,57.92
2018-09-26T06:23:03.765Z,58.14
2018-09-26T06:24:03.755Z,58.01
2018-09-26T06:25:03.745Z,57.65
2018-09-26T06:26:03.737Z,58.04
2018-09-26T06:27:03.730Z,57.65
2018-09-26T06:28:03.721Z,57.72
2018-09-26T06:29:03.713Z,57.65
2018-09-26T06:30:03.699Z,58.23
2018-09-26T06:31:03.687Z,57.94
2018-09-26T06:32:03.696Z,58.14
2018-09-26T06:33:03.687Z,58.14
2018-09-26T06:34:03.673Z,58.23
2018-09-26T06:35:03.731Z,58.23
2018-09-26T06:36:03.650Z,58.20
2018-09-26T06:37:03.656Z,58.23
2018-09-26T06:38:03.641Z,58.14
2018-09-26T06:39:03.634Z,58.23
2018-09-26T06:40:03.621Z,58.30
2018-09-26T06:41:03.630Z,58.42
2018-09-26T06:42:03.617Z,58.20
2018-09-26T06:43:03.618Z,57.94
2018-09-26T06:44:03.584Z,58.14
2018-09-26T06:45:03.577Z,58.30
2018-09-26T06:46:03.569Z,58.20
2018-09-26T06:47:03.558Z,58.23
2018-09-26T06:48:03.547Z,58.23
2018-09-26T06:49:03.543Z,58.11
2018-09-26T06:50:03.537Z,57.92
2018-09-26T06:51:03.531Z,57.82
2018-09-26T06:52:03.513Z,58.01
2018-09-26T06:53:03.506Z,58.11
2018-09-26T06:54:03.518Z,58.04
2018-09-26T06:55:03.489Z,58.04
2018-09-26T06:56:03.486Z,58.14
2018-09-26T06:57:03.472Z,58.40
2018-09-26T06:58:03.463Z,58.40
2018-09-26T06:59:03.454Z,58.69
2018-09-26T07:00:03.502Z,58.49
2018-09-26T07:01:03.437Z,58.52
2018-09-26T07:02:03.428Z,58.72
2018-09-26T07:03:03.420Z,58.20
2018-09-26T07:04:03.411Z,58.23
2018-09-26T07:05:03.403Z,58.40
2018-09-26T07:06:03.395Z,58.52
2018-09-26T07:07:03.389Z,58.42
2018-09-26T07:08:03.376Z,58.40
2018-09-26T07:09:03.369Z,58.49
2018-09-26T07:10:03.357Z,58.30
2018-09-26T07:11:03.350Z,58.30
2018-09-26T07:12:03.362Z,58.42
2018-09-26T07:13:03.334Z,58.40
2018-09-26T07:14:03.330Z,58.40
2018-09-26T07:15:03.319Z,58.30
2018-09-26T07:16:03.304Z,58.33
2018-09-26T07:17:03.299Z,58.49
2018-09-26T07:18:03.298Z,58.59
2018-09-26T07:19:03.282Z,58.69
2018-09-26T07:20:03.275Z,58.72
2018-09-26T07:21:03.264Z,58.23
2018-09-26T07:22:03.257Z,58.42
2018-09-26T07:23:03.248Z,58.33
2018-09-26T07:24:03.261Z,58.20
2018-09-26T07:25:03.233Z,58.33
2018-09-26T07:26:03.223Z,58.14
2018-09-26T07:27:03.214Z,58.33
2018-09-26T07:28:03.205Z,58.33
2018-09-26T07:29:03.198Z,58.42
2018-09-26T07:30:03.199Z,58.33
2018-09-26T07:31:03.180Z,58.33
2018-09-26T07:32:03.173Z,58.23
2018-09-26T07:33:03.164Z,58.33
2018-09-26T07:34:03.154Z,58.14
2018-09-26T07:35:03.145Z,58.23
2018-09-26T07:36:03.143Z,58.33
2018-09-26T07:37:03.132Z,58.42
2018-09-26T07:38:03.121Z,58.14
2018-09-26T07:39:03.108Z,58.23
2018-09-26T07:40:03.101Z,58.23
2018-09-26T07:41:03.102Z,58.72
2018-09-26T07:42:03.085Z,58.52
2018-09-26T07:43:03.077Z,58.42
2018-09-26T07:44:03.125Z,58.42
2018-09-26T07:45:03.059Z,58.62
2018-09-26T07:46:03.058Z,58.78
2018-09-26T07:47:03.048Z,59.20
2018-09-26T07:48:03.039Z,59.10
2018-09-26T07:49:03.027Z,58.72
2018-09-26T07:50:03.014Z,59.00
2018-09-26T07:51:03.008Z,58.72
2018-09-26T07:52:02.999Z,58.72
2018-09-26T07:53:03.015Z,58.52
2018-09-26T07:54:02.983Z,58.62
2018-09-26T07:55:02.975Z,58.42
2018-09-26T07:56:02.969Z,58.81
2018-09-26T07:57:02.957Z,58.72
2018-09-26T07:58:02.950Z,58.52
2018-09-26T07:59:02.956Z,58.33
2018-09-26T08:00:02.989Z,58.14
2018-09-26T08:01:02.927Z,58.14
2018-09-26T08:02:02.921Z,58.04
2018-09-26T08:03:02.910Z,58.23
2018-09-26T08:04:02.902Z,58.23
2018-09-26T08:05:02.888Z,58.33
2018-09-26T08:06:02.979Z,58.23
2018-09-26T08:07:02.873Z,58.62
2018-09-26T08:08:02.863Z,58.04
2018-09-26T08:09:02.856Z,58.23
2018-09-26T08:10:02.845Z,58.04
2018-09-26T08:11:02.836Z,58.23
2018-09-26T08:12:02.828Z,58.04
2018-09-26T08:13:02.819Z,58.23
2018-09-26T08:14:02.812Z,58.33
2018-09-26T08:15:02.804Z,58.23
2018-09-26T08:16:02.796Z,58.04
2018-09-26T08:17:02.787Z,58.23
2018-09-26T08:18:02.783Z,58.04
2018-09-26T08:19:02.768Z,58.33
2018-09-26T08:20:02.766Z,58.23
2018-09-26T08:21:02.753Z,58.04
2018-09-26T08:22:02.744Z,58.23
2018-09-26T08:23:02.735Z,58.14
2018-09-26T08:24:02.835Z,58.33
2018-09-26T08:25:02.715Z,58.62
2018-09-26T08:26:02.709Z,58.72
2018-09-26T08:27:02.710Z,58.81
2018-09-26T08:28:02.695Z,58.42
2018-09-26T08:29:02.686Z,58.42
2018-09-26T08:30:02.675Z,58.42
2018-09-26T08:31:02.668Z,58.52
2018-09-26T08:32:02.660Z,58.62
2018-09-26T08:33:02.651Z,58.72
2018-09-26T08:34:02.640Z,58.72
2018-09-26T08:35:02.636Z,58.72
2018-09-26T08:36:02.621Z,58.72
2018-09-26T08:37:02.615Z,58.72
2018-09-26T08:38:02.608Z,58.52
2018-09-26T08:39:02.600Z,58.62
2018-09-26T08:40:02.592Z,58.62
2018-09-26T08:41:02.582Z,58.52
2018-09-26T08:42:02.575Z,58.42
2018-09-26T08:43:02.564Z,58.42
2018-09-26T08:44:02.626Z,58.42
2018-09-26T08:45:02.551Z,58.62
2018-09-26T08:46:02.540Z,58.52
2018-09-26T08:47:02.530Z,58.42
2018-09-26T08:48:02.527Z,58.72
2018-09-26T08:49:02.514Z,58.62
2018-09-26T08:50:02.511Z,58.33
2018-09-26T08:51:02.498Z,58.72
2018-09-26T08:52:02.491Z,58.52
2018-09-26T08:53:02.481Z,58.62
2018-09-26T08:54:02.471Z,58.42
2018-09-26T08:55:02.463Z,58.52
2018-09-26T08:56:02.455Z,58.62
2018-09-26T08:57:02.455Z,58.62
2018-09-26T08:58:02.439Z,58.42
2018-09-26T08:59:02.427Z,58.62
2018-09-26T09:00:02.421Z,58.42
2018-09-26T09:01:02.416Z,58.62
2018-09-26T09:02:02.404Z,58.62
2018-09-26T09:03:02.396Z,58.72
2018-09-26T09:04:02.387Z,58.42
2018-09-26T09:05:02.379Z,58.52
2018-09-26T09:06:02.423Z,58.62
2018-09-26T09:07:02.370Z,58.72
2018-09-26T09:08:02.355Z,58.72
2018-09-26T09:09:02.345Z,58.52
2018-09-26T09:10:02.338Z,58.62
2018-09-26T09:11:02.326Z,58.72
2018-09-26T09:12:02.321Z,58.81
2018-09-26T09:13:02.314Z,58.75
2018-09-26T09:14:02.302Z,58.62
2018-09-26T09:15:02.294Z,58.62
2018-09-26T09:16:02.285Z,58.52
2018-09-26T09:17:02.278Z,58.62
2018-09-26T09:18:02.267Z,58.72
2018-09-26T09:19:02.259Z,58.42
2018-09-26T09:20:02.256Z,58.55
2018-09-26T09:21:02.245Z,58.42
2018-09-26T09:22:02.233Z,58.42
2018-09-26T09:23:02.226Z,58.45
2018-09-26T09:24:02.220Z,58.42
2018-09-26T09:25:02.210Z,58.55
2018-09-26T09:26:02.199Z,58.45
2018-09-26T09:27:02.228Z,58.72
2018-09-26T09:28:02.183Z,58.42
2018-09-26T09:29:02.177Z,58.23
2018-09-26T09:30:02.170Z,58.26
2018-09-26T09:31:02.161Z,58.72
2018-09-26T09:32:02.150Z,58.36
2018-09-26T09:33:02.138Z,58.72
2018-09-26T09:34:02.132Z,58.42
2018-09-26T09:35:02.125Z,58.75
2018-09-26T09:36:02.124Z,58.45
2018-09-26T09:37:02.113Z,58.42
2018-09-26T09:38:02.099Z,58.81
2018-09-26T09:39:02.091Z,58.42
2018-09-26T09:40:02.084Z,58.42
2018-09-26T09:41:02.074Z,58.45
2018-09-26T09:42:02.067Z,58.52
2018-09-26T09:43:02.056Z,58.65
2018-09-26T09:44:02.060Z,58.72
2018-09-26T09:45:02.038Z,58.62
2018-09-26T09:46:02.034Z,58.84
2018-09-26T09:47:02.023Z,58.75
2018-09-26T09:48:02.023Z,58.84
2018-09-26T09:49:02.007Z,58.81
2018-09-26T09:50:01.997Z,58.65
2018-09-26T09:51:01.990Z,58.65
2018-09-26T09:52:01.983Z,59.23
2018-09-26T09:53:01.971Z,59.20
2018-09-26T09:54:01.966Z,58.75
2018-09-26T09:55:01.956Z,58.75
2018-09-26T09:56:01.945Z,58.72
2018-09-26T09:57:01.939Z,58.81
2018-09-26T09:58:01.931Z,58.75
2018-09-26T09:59:01.928Z,59.23
2018-09-26T10:00:01.915Z,59.23
2018-09-26T10:01:01.909Z,58.45
2018-09-26T10:02:01.899Z,58.75
2018-09-26T10:03:02.013Z,58.84
2018-09-26T10:04:01.885Z,59.23
2018-09-26T10:05:01.881Z,58.94
2018-09-26T10:06:02.541Z,58.84
2018-09-26T10:07:02.445Z,59.13
2018-09-26T10:08:01.883Z,59.20
2018-09-26T10:09:01.840Z,59.03
2018-09-26T10:10:01.838Z,59.03
2018-09-26T10:11:01.829Z,59.13
2018-09-26T10:12:01.814Z,59.00
2018-09-26T10:13:02.128Z,59.00
2018-09-26T10:14:01.799Z,58.65
2018-09-26T10:15:01.793Z,59.03
2018-09-26T10:16:01.788Z,58.94
2018-09-26T10:17:01.772Z,59.23
2018-09-26T10:18:01.770Z,58.94
2018-09-26T10:20:01.775Z,59.13
2018-09-26T10:21:01.754Z,59.10
2018-09-26T10:22:01.742Z,58.65
2018-09-26T10:23:01.739Z,58.94
2018-09-26T10:24:01.736Z,59.03
2018-09-26T10:25:01.769Z,59.03
2018-09-26T10:26:22.781Z,58.94
2018-09-26T10:27:01.702Z,59.10
2018-09-26T10:28:01.690Z,59.00
2018-09-26T10:29:01.682Z,59.10
2018-09-26T10:30:01.672Z,59.00
2018-09-26T10:31:01.682Z,59.10
2018-09-26T10:32:22.704Z,59.10
2018-09-26T10:33:01.652Z,59.03
2018-09-26T10:34:01.639Z,59.10
2018-09-26T10:35:01.673Z,59.03
2018-09-26T10:36:01.616Z,58.91
2018-09-26T10:37:03.148Z,58.94
2018-09-26T10:38:22.641Z,58.94
2018-09-26T10:39:01.597Z,59.13
2018-09-26T10:40:01.579Z,59.00
2018-09-26T10:41:02.930Z,59.00
2018-09-26T10:42:02.742Z,59.10
2018-09-26T10:43:02.592Z,59.00
2018-09-26T10:44:23.945Z,58.75
2018-09-26T10:45:02.846Z,59.03
2018-09-26T10:46:03.248Z,58.75
2018-09-26T10:47:03.262Z,59.00
2018-09-26T10:48:02.731Z,58.91
2018-09-26T10:49:03.021Z,59.03
2018-09-26T10:50:24.502Z,59.03
2018-09-26T10:51:03.182Z,59.13
2018-09-26T10:52:03.074Z,59.23
2018-09-26T10:53:02.895Z,59.13
2018-09-26T10:54:02.937Z,59.03
2018-09-26T10:55:02.873Z,59.03
2018-09-26T10:56:24.093Z,59.03
2018-09-26T10:57:03.132Z,58.94
2018-09-26T10:58:03.277Z,59.03
2018-09-26T10:59:03.118Z,59.00
2018-09-26T11:00:02.961Z,59.00
2018-09-26T11:01:03.074Z,58.94
2018-09-26T11:02:23.585Z,58.84
2018-09-26T11:03:03.161Z,59.10
2018-09-26T11:04:03.464Z,59.03
2018-09-26T11:05:02.850Z,59.03
2018-09-26T11:06:03.236Z,59.13
2018-09-26T11:07:03.371Z,59.13
2018-09-26T11:08:24.576Z,59.13
2018-09-26T11:09:02.990Z,59.03
2018-09-26T11:10:03.182Z,59.23
2018-09-26T11:11:03.053Z,59.03
2018-09-26T11:12:03.075Z,59.13
2018-09-26T11:13:03.055Z,59.13
2018-09-26T11:14:24.451Z,59.03
2018-09-26T11:15:03.119Z,58.65
2018-09-26T11:16:02.514Z,58.94
2018-09-26T11:17:03.063Z,58.75
2018-09-26T11:18:02.605Z,58.65
2018-09-26T11:19:02.694Z,58.94
2018-09-26T11:20:24.407Z,58.75
2018-09-26T11:21:02.597Z,58.75
2018-09-26T11:22:02.820Z,58.84
2018-09-26T11:23:02.650Z,58.94
2018-09-26T11:24:03.104Z,58.75
2018-09-26T11:25:03.420Z,58.94
2018-09-26T11:26:24.451Z,58.75
2018-09-26T11:27:02.596Z,59.03
2018-09-26T11:28:02.668Z,58.75
2018-09-26T11:29:02.892Z,59.03
2018-09-26T11:30:03.124Z,58.75
2018-09-26T11:31:03.107Z,58.75
2018-09-26T11:32:23.745Z,58.75
2018-09-26T11:33:02.552Z,59.13
2018-09-26T11:34:03.249Z,59.13
2018-09-26T11:35:02.700Z,59.13
2018-09-26T11:36:02.719Z,59.03
2018-09-26T11:37:02.744Z,59.32
2018-09-26T11:38:23.937Z,59.23
2018-09-26T11:39:02.854Z,59.03
2018-09-26T11:40:02.833Z,59.03
2018-09-26T11:41:02.889Z,58.94
2018-09-26T11:42:02.791Z,59.03
2018-09-26T11:43:03.185Z,59.13
2018-09-26T11:44:23.719Z,59.23
2018-09-26T11:45:02.893Z,59.23
2018-09-26T11:46:02.496Z,59.32
2018-09-26T11:47:02.486Z,59.23
2018-09-26T11:48:02.792Z,59.23
2018-09-26T11:49:02.861Z,59.32
2018-09-26T11:50:23.495Z,59.32
2018-09-26T11:51:02.607Z,59.32
2018-09-26T11:52:02.480Z,59.32
2018-09-26T11:53:02.800Z,59.03
2018-09-26T11:54:02.520Z,59.32
2018-09-26T11:55:02.666Z,59.32
2018-09-26T11:56:23.930Z,59.52
2018-09-26T11:57:02.415Z,59.52
2018-09-26T11:58:02.253Z,59.52
2018-09-26T11:59:02.661Z,59.52
2018-09-26T12:00:02.257Z,59.52
2018-09-26T12:01:02.225Z,59.32
2018-09-26T12:02:23.496Z,59.61
2018-09-26T12:03:02.455Z,59.61
2018-09-26T12:04:02.384Z,59.52
2018-09-26T12:05:02.546Z,59.52
2018-09-26T12:06:02.435Z,59.42
2018-09-26T12:07:02.818Z,59.52
2018-09-26T12:08:23.783Z,59.42
2018-09-26T12:09:02.485Z,59.61
2018-09-26T12:10:02.578Z,59.61
2018-09-26T12:11:02.886Z,59.61
2018-09-26T12:12:03.115Z,59.52
2018-09-26T12:13:02.974Z,59.52
2018-09-26T12:14:23.331Z,59.52
2018-09-26T12:15:02.550Z,59.52
2018-09-26T12:16:02.427Z,59.61
2018-09-26T12:17:03.162Z,59.52
2018-09-26T12:18:02.559Z,59.71
2018-09-26T12:19:02.526Z,59.61
2018-09-26T12:20:23.623Z,59.71
2018-09-26T12:21:02.522Z,59.42
2018-09-26T12:22:02.256Z,59.71
2018-09-26T12:23:02.092Z,59.61
2018-09-26T12:24:02.154Z,59.61
2018-09-26T12:25:02.222Z,59.61
2018-09-26T12:26:23.181Z,59.71
2018-09-26T12:27:02.200Z,59.80
2018-09-26T12:28:02.292Z,59.80
2018-09-26T12:29:02.154Z,59.71
2018-09-26T12:30:02.208Z,59.80
2018-09-26T12:31:02.657Z,59.80
2018-09-26T12:32:23.867Z,59.80
2018-09-26T12:33:02.308Z,59.80
2018-09-26T12:34:02.311Z,59.90
2018-09-26T12:35:02.333Z,60.00
2018-09-26T12:36:02.734Z,60.00
2018-09-26T12:37:02.074Z,60.10
2018-09-26T12:38:23.845Z,59.80
2018-09-26T12:39:02.252Z,59.61
2018-09-26T12:40:02.173Z,59.61
2018-09-26T12:41:02.401Z,59.61
2018-09-26T12:42:02.178Z,59.52
2018-09-26T12:43:02.252Z,59.61
2018-09-26T12:44:22.831Z,59.61
2018-09-26T12:45:01.850Z,59.61
2018-09-26T12:46:02.869Z,59.61
2018-09-26T12:47:02.334Z,59.52
2018-09-26T12:48:02.284Z,59.61
2018-09-26T12:49:02.004Z,59.61
2018-09-26T12:50:22.872Z,59.90
2018-09-26T12:51:02.688Z,59.71
2018-09-26T12:52:03.075Z,59.61
2018-09-26T12:53:02.003Z,59.71